Time;durP1;ratioP1;P1;durP2;ratioP2;P2;SDS_P1;SDS_P2;PMS_P1;PMS_P2;Temp;Humidity;BMP_temperature;BMP_pressure;BME280_temperature;BME280_humidity;BME280_pressure;Samples;Min_cycle;Max_cycle;Signal;HPM_P1;HPM_P2
2021/12/08 00:02:12;;;;;;;7.83;4.63;;;;;;;;;;5048818;28;20182;-74
2021/12/08 00:04:37;;;;;;;8.63;4.90;;;;;;;;;;5053294;28;20677;-73
2021/12/08 00:07:03;;;;;;;7.07;4.20;;;;;;;;;;5056856;28;20185;-73
2021/12/08 00:09:45;;;;;;;6.47;4.07;;;;;;;;;;5061028;28;20189;-73
2021/12/08 00:14:54;;;;;;;7.20;5.10;;;;;;;;;;5050276;28;20185;-73
2021/12/08 00:17:20;;;;;;;8.10;4.83;;;;;;;;;;5048112;28;20181;-73
2021/12/08 00:19:45;;;;;;;7.53;4.93;;;;;;;;;;5059294;28;20674;-73
2021/12/08 00:22:10;;;;;;;8.37;4.50;;;;;;;;;;5050335;28;20189;-73
2021/12/08 00:24:35;;;;;;;8.73;4.97;;;;;;;;;;5054153;28;20612;-73
2021/12/08 00:27:01;;;;;;;8.00;5.23;;;;;;;;;;5050349;28;20652;-73
2021/12/08 00:29:26;;;;;;;6.07;3.63;;;;;;;;;;5055506;28;20216;-73
2021/12/08 00:31:51;;;;;;;7.53;6.13;;;;;;;;;;5064875;28;20188;-73
2021/12/08 00:34:17;;;;;;;9.27;4.10;;;;;;;;;;5057280;28;20169;-72
2021/12/08 00:36:45;;;;;;;8.33;4.20;;;;;;;;;;5062223;28;20544;-73
2021/12/08 00:39:11;;;;;;;6.20;5.00;;;;;;;;;;5053629;28;20561;-73
2021/12/08 00:41:36;;;;;;;6.97;4.77;;;;;;;;;;5051998;28;20182;-73
2021/12/08 00:44:02;;;;;;;11.07;5.00;;;;;;;;;;5057037;28;20205;-73
2021/12/08 00:46:27;;;;;;;6.40;5.40;;;;;;;;;;5049687;28;20201;-73
2021/12/08 00:48:52;;;;;;;7.20;4.40;;;;;;;;;;5050942;28;20577;-73
2021/12/08 00:51:18;;;;;;;5.70;4.73;;;;;;;;;;5077335;28;20553;-72
2021/12/08 00:53:44;;;;;;;6.50;4.70;;;;;;;;;;5060180;28;20212;-72
2021/12/08 00:56:09;;;;;;;9.50;5.10;;;;;;;;;;5059129;28;20193;-72
2021/12/08 00:58:34;;;;;;;9.23;5.10;;;;;;;;;;5056726;28;20204;-72
2021/12/08 01:00:59;;;;;;;9.20;5.20;;;;;;;;;;5050752;28;20265;-72
2021/12/08 01:03:25;;;;;;;5.50;4.83;;;;;;;;;;5047734;28;20190;-72
2021/12/08 01:05:52;;;;;;;7.60;5.10;;;;;;;;;;5054698;28;20195;-72
2021/12/08 01:08:19;;;;;;;7.43;4.77;;;;;;;;;;5058989;28;20194;-72
2021/12/08 01:10:44;;;;;;;7.23;5.33;;;;;;;;;;5061317;28;20173;-72
2021/12/08 01:13:11;;;;;;;5.70;4.50;;;;;;;;;;5055774;28;20199;-73
2021/12/08 01:15:38;;;;;;;6.03;4.47;;;;;;;;;;5055131;28;20250;-72
2021/12/08 01:18:03;;;;;;;6.13;4.77;;;;;;;;;;5060241;28;20197;-72
2021/12/08 01:20:29;;;;;;;6.23;4.50;;;;;;;;;;5057209;28;20169;-72
2021/12/08 01:22:54;;;;;;;6.17;4.33;;;;;;;;;;5055867;28;20205;-72
2021/12/08 01:25:19;;;;;;;5.60;4.43;;;;;;;;;;5059336;28;20693;-72
2021/12/08 01:27:44;;;;;;;6.57;3.80;;;;;;;;;;5051592;28;20670;-72
2021/12/08 01:30:10;;;;;;;4.33;3.63;;;;;;;;;;5060935;28;20184;-72
2021/12/08 01:32:35;;;;;;;7.47;4.10;;;;;;;;;;5059269;28;20188;-72
2021/12/08 01:35:01;;;;;;;6.30;4.53;;;;;;;;;;5056848;28;20192;-72
2021/12/08 01:37:27;;;;;;;4.30;3.93;;;;;;;;;;5057942;28;20182;-73
2021/12/08 01:39:52;;;;;;;5.83;4.13;;;;;;;;;;5055683;28;20176;-72
2021/12/08 01:42:27;;;;;;;5.67;4.30;;;;;;;;;;5060699;28;20657;-72
2021/12/08 01:47:36;;;;;;;5.40;4.10;;;;;;;;;;5059993;28;20235;-72
2021/12/08 01:50:02;;;;;;;4.97;4.30;;;;;;;;;;5057726;28;20174;-72
2021/12/08 01:52:27;;;;;;;7.93;4.00;;;;;;;;;;5061932;28;20555;-72
2021/12/08 01:54:55;;;;;;;6.70;3.77;;;;;;;;;;5063378;28;20170;-72
2021/12/08 01:57:20;;;;;;;6.83;3.57;;;;;;;;;;5046501;28;20174;-72
2021/12/08 01:59:45;;;;;;;5.70;3.50;;;;;;;;;;5059022;28;20185;-72
2021/12/08 02:02:11;;;;;;;4.43;3.57;;;;;;;;;;5054282;28;20181;-72
2021/12/08 02:04:36;;;;;;;5.37;3.47;;;;;;;;;;5062820;28;20173;-73
2021/12/08 02:07:02;;;;;;;4.87;4.10;;;;;;;;;;5056490;28;20312;-73
2021/12/08 02:09:27;;;;;;;4.73;3.57;;;;;;;;;;5059247;28;20268;-73
2021/12/08 02:11:55;;;;;;;4.70;3.87;;;;;;;;;;5059649;28;20260;-73
2021/12/08 02:14:21;;;;;;;4.50;3.80;;;;;;;;;;5065298;28;20177;-72
2021/12/08 02:16:46;;;;;;;5.97;4.07;;;;;;;;;;5057382;28;20203;-72
2021/12/08 02:19:12;;;;;;;5.37;3.83;;;;;;;;;;5068736;28;20536;-72
2021/12/08 02:21:38;;;;;;;6.70;3.50;;;;;;;;;;5059261;28;20177;-73
2021/12/08 02:24:05;;;;;;;4.93;4.27;;;;;;;;;;5066661;28;20724;-72
2021/12/08 02:26:30;;;;;;;4.43;3.63;;;;;;;;;;5054881;28;20565;-73
2021/12/08 02:28:57;;;;;;;5.83;4.90;;;;;;;;;;5059797;28;20200;-72
2021/12/08 02:31:50;;;;;;;7.57;3.83;;;;;;;;;;5062175;28;20177;-72
2021/12/08 02:50:18;;;;;;;6.33;4.43;;;;;;;;;;5056452;28;20182;-73
2021/12/08 02:52:43;;;;;;;6.77;5.07;;;;;;;;;;5063444;28;20173;-73
2021/12/08 02:55:08;;;;;;;10.30;4.57;;;;;;;;;;5056264;28;20193;-72
2021/12/08 02:57:33;;;;;;;7.43;4.47;;;;;;;;;;5050242;28;20186;-72
2021/12/08 02:59:59;;;;;;;6.07;4.60;;;;;;;;;;5055234;28;20659;-72
2021/12/08 03:02:24;;;;;;;6.83;4.50;;;;;;;;;;5056524;28;20212;-72
2021/12/08 03:04:49;;;;;;;9.63;5.23;;;;;;;;;;5059088;28;20246;-72
2021/12/08 03:07:14;;;;;;;6.13;4.53;;;;;;;;;;5053652;28;20309;-73
2021/12/08 03:09:40;;;;;;;6.60;4.50;;;;;;;;;;5055041;28;20205;-72
2021/12/08 03:12:07;;;;;;;9.83;6.37;;;;;;;;;;5061567;28;20357;-72
2021/12/08 03:14:32;;;;;;;9.50;4.53;;;;;;;;;;5072525;28;20181;-73
2021/12/08 03:17:00;;;;;;;8.67;4.60;;;;;;;;;;5052703;28;20174;-72
2021/12/08 03:19:26;;;;;;;12.77;5.23;;;;;;;;;;5066020;28;20228;-72
2021/12/08 03:21:52;;;;;;;12.30;4.70;;;;;;;;;;5059574;28;20177;-72
2021/12/08 03:24:33;;;;;;;8.07;4.10;;;;;;;;;;5062461;28;21267;-72
2021/12/08 03:29:45;;;;;;;7.40;3.90;;;;;;;;;;5055040;28;20211;-72
2021/12/08 03:32:15;;;;;;;10.37;3.73;;;;;;;;;;5055476;28;20185;-73
2021/12/08 03:34:49;;;;;;;8.83;3.47;;;;;;;;;;5061927;28;20188;-72
2021/12/08 03:37:14;;;;;;;9.63;3.83;;;;;;;;;;5063324;28;20203;-73
2021/12/08 03:39:40;;;;;;;4.87;3.37;;;;;;;;;;5061915;28;20678;-72
2021/12/08 03:42:05;;;;;;;5.43;3.50;;;;;;;;;;5055563;28;20177;-72
2021/12/08 03:44:31;;;;;;;10.87;4.27;;;;;;;;;;5058651;28;20239;-73
2021/12/08 03:47:00;;;;;;;6.90;4.07;;;;;;;;;;5058910;28;20184;-72
2021/12/08 03:49:25;;;;;;;10.80;3.60;;;;;;;;;;5053657;28;20224;-72
2021/12/08 03:51:51;;;;;;;9.63;3.10;;;;;;;;;;5056921;28;20626;-73
2021/12/08 03:54:16;;;;;;;7.23;3.07;;;;;;;;;;5065466;28;20177;-73
2021/12/08 03:56:41;;;;;;;7.50;3.13;;;;;;;;;;5056932;28;20196;-73
2021/12/08 03:59:06;;;;;;;7.97;3.03;;;;;;;;;;5056746;28;20686;-74
2021/12/08 04:01:33;;;;;;;5.93;3.33;;;;;;;;;;5046172;28;20192;-72
2021/12/08 04:04:04;;;;;;;9.87;2.73;;;;;;;;;;5049838;28;20252;-72
2021/12/08 04:06:33;;;;;;;6.77;2.83;;;;;;;;;;5051239;28;20207;-72
2021/12/08 04:09:01;;;;;;;5.67;2.53;;;;;;;;;;5063213;28;20196;-72
2021/12/08 04:11:26;;;;;;;7.97;2.87;;;;;;;;;;5045169;28;20593;-72
2021/12/08 04:13:54;;;;;;;10.43;3.20;;;;;;;;;;5061274;28;20230;-72
2021/12/08 04:16:21;;;;;;;5.70;2.60;;;;;;;;;;5053945;28;20188;-72
2021/12/08 04:18:46;;;;;;;7.10;2.97;;;;;;;;;;5047136;28;20204;-73
2021/12/08 04:21:12;;;;;;;4.27;2.57;;;;;;;;;;5052997;28;20182;-72
2021/12/08 04:23:39;;;;;;;3.67;2.10;;;;;;;;;;5059302;28;20178;-72
2021/12/08 04:26:08;;;;;;;5.23;2.43;;;;;;;;;;5057824;28;20209;-72
2021/12/08 04:28:34;;;;;;;8.47;2.43;;;;;;;;;;5041534;28;20205;-72
2021/12/08 04:31:05;;;;;;;5.13;2.20;;;;;;;;;;5059517;28;20189;-72
2021/12/08 04:33:32;;;;;;;8.60;3.13;;;;;;;;;;5058320;28;20658;-72
2021/12/08 04:35:57;;;;;;;8.57;2.50;;;;;;;;;;5056014;28;20189;-71
2021/12/08 04:38:29;;;;;;;7.87;2.60;;;;;;;;;;5065590;28;20202;-72
2021/12/08 04:41:04;;;;;;;5.87;2.77;;;;;;;;;;5056395;28;20272;-72
2021/12/08 04:46:14;;;;;;;6.97;3.13;;;;;;;;;;5052767;28;20197;-71
2021/12/08 05:07:03;;;;;;;6.20;2.30;;;;;;;;;;5063141;28;20205;-72
2021/12/08 05:09:35;;;;;;;5.40;2.07;;;;;;;;;;5055386;28;20224;-73
2021/12/08 05:12:06;;;;;;;10.17;2.20;;;;;;;;;;5054498;28;20256;-72
2021/12/08 05:14:37;;;;;;;7.23;2.73;;;;;;;;;;5058965;28;20256;-72
2021/12/08 05:17:08;;;;;;;4.73;2.00;;;;;;;;;;5056912;28;20178;-72
2021/12/08 05:19:34;;;;;;;6.53;2.43;;;;;;;;;;5055534;28;20199;-71
2021/12/08 05:22:05;;;;;;;7.30;2.57;;;;;;;;;;5069926;28;20184;-73
2021/12/08 05:24:35;;;;;;;6.97;2.20;;;;;;;;;;5064379;28;20610;-72
2021/12/08 05:27:06;;;;;;;6.70;1.70;;;;;;;;;;5058832;28;20169;-71
2021/12/08 05:29:38;;;;;;;8.20;2.20;;;;;;;;;;5061306;28;20273;-71
2021/12/08 05:32:05;;;;;;;9.10;2.27;;;;;;;;;;5057697;28;20182;-72
2021/12/08 05:34:31;;;;;;;6.83;2.47;;;;;;;;;;5063482;28;20187;-72
2021/12/08 05:36:56;;;;;;;5.10;2.27;;;;;;;;;;5063963;28;20169;-73
2021/12/08 05:39:23;;;;;;;6.40;2.17;;;;;;;;;;5062834;28;20190;-71
2021/12/08 05:41:52;;;;;;;6.37;2.43;;;;;;;;;;5062010;28;20730;-72
2021/12/08 05:44:17;;;;;;;3.33;1.90;;;;;;;;;;5067002;28;20527;-72
2021/12/08 05:46:45;;;;;;;8.53;2.13;;;;;;;;;;5065483;28;20208;-73
2021/12/08 05:49:12;;;;;;;8.73;1.83;;;;;;;;;;5058403;28;20263;-72
2021/12/08 05:51:38;;;;;;;4.70;1.60;;;;;;;;;;5067545;28;20257;-72
2021/12/08 05:54:06;;;;;;;5.60;1.70;;;;;;;;;;5062821;28;20662;-73
2021/12/08 05:56:31;;;;;;;11.67;3.30;;;;;;;;;;5054198;28;20204;-72
2021/12/08 05:58:59;;;;;;;5.70;2.00;;;;;;;;;;5065488;28;20635;-72
2021/12/08 06:01:30;;;;;;;6.87;1.47;;;;;;;;;;5057567;28;20651;-72
2021/12/08 06:03:56;;;;;;;4.40;1.67;;;;;;;;;;5056403;28;20626;-72
2021/12/08 06:06:22;;;;;;;5.80;1.40;;;;;;;;;;5062445;28;20236;-72
2021/12/08 06:08:47;;;;;;;5.43;1.60;;;;;;;;;;5072324;28;20276;-72
2021/12/08 06:11:13;;;;;;;6.63;1.80;;;;;;;;;;5060415;28;20372;-72
2021/12/08 06:13:39;;;;;;;7.23;1.70;;;;;;;;;;5062939;28;20662;-72
2021/12/08 06:16:05;;;;;;;3.40;1.30;;;;;;;;;;5066785;28;20255;-72
2021/12/08 06:18:37;;;;;;;6.40;2.80;;;;;;;;;;5059895;28;20738;-72
2021/12/08 06:21:04;;;;;;;6.83;1.80;;;;;;;;;;5060782;28;20180;-73
2021/12/08 06:23:31;;;;;;;9.13;3.00;;;;;;;;;;5066132;28;20177;-73
2021/12/08 06:25:57;;;;;;;8.10;1.67;;;;;;;;;;5063189;28;20225;-72
2021/12/08 06:28:22;;;;;;;7.03;1.80;;;;;;;;;;5065539;28;20221;-72
2021/12/08 06:30:49;;;;;;;7.27;1.60;;;;;;;;;;5060097;28;20174;-73
2021/12/08 06:33:15;;;;;;;5.97;1.93;;;;;;;;;;5056683;28;20174;-73
2021/12/08 06:35:43;;;;;;;7.17;1.57;;;;;;;;;;5062462;28;20647;-73
2021/12/08 06:38:08;;;;;;;6.80;1.73;;;;;;;;;;5063571;28;20563;-72
2021/12/08 06:40:37;;;;;;;5.47;1.20;;;;;;;;;;5064683;28;20208;-72
2021/12/08 06:43:04;;;;;;;6.30;1.77;;;;;;;;;;5055767;28;20182;-72
2021/12/08 06:45:32;;;;;;;7.67;1.73;;;;;;;;;;5057238;28;20201;-72
2021/12/08 06:47:59;;;;;;;11.10;2.37;;;;;;;;;;5055936;28;20213;-73
2021/12/08 06:50:31;;;;;;;8.57;1.70;;;;;;;;;;5056656;28;20181;-72
2021/12/08 06:52:57;;;;;;;5.67;1.63;;;;;;;;;;5056635;28;20182;-73
2021/12/08 06:55:30;;;;;;;8.50;1.40;;;;;;;;;;5054049;28;20182;-72
2021/12/08 06:58:01;;;;;;;8.17;1.37;;;;;;;;;;5050623;28;20647;-73
2021/12/08 07:06:19;;;;;;;9.60;1.73;;;;;;;;;;5054909;28;20273;-72
2021/12/08 07:08:50;;;;;;;6.03;1.73;;;;;;;;;;5058043;28;20193;-72
2021/12/08 07:11:16;;;;;;;7.40;1.80;;;;;;;;;;5052378;28;20190;-72
2021/12/08 07:13:41;;;;;;;12.10;2.73;;;;;;;;;;5054369;28;20209;-72
2021/12/08 07:16:09;;;;;;;6.67;2.00;;;;;;;;;;5056966;28;20224;-72
2021/12/08 07:18:42;;;;;;;10.97;1.90;;;;;;;;;;5056783;28;20209;-72
2021/12/08 07:21:10;;;;;;;11.80;1.97;;;;;;;;;;5058359;28;20290;-72
2021/12/08 07:23:43;;;;;;;6.30;1.60;;;;;;;;;;5056348;28;20655;-72
2021/12/08 07:26:18;;;;;;;6.20;1.80;;;;;;;;;;5052562;28;20202;-72
2021/12/08 07:28:43;;;;;;;13.03;1.87;;;;;;;;;;5046698;28;20273;-72
2021/12/08 07:31:11;;;;;;;5.27;2.40;;;;;;;;;;5056074;28;20266;-72
2021/12/08 07:33:37;;;;;;;10.07;2.07;;;;;;;;;;5062033;28;20191;-73
2021/12/08 07:36:04;;;;;;;5.33;1.70;;;;;;;;;;5069767;28;20180;-72
2021/12/08 07:38:29;;;;;;;4.13;2.30;;;;;;;;;;5061656;28;20249;-72
2021/12/08 07:40:55;;;;;;;5.43;1.77;;;;;;;;;;5051088;28;20190;-72
2021/12/08 07:43:22;;;;;;;8.23;2.03;;;;;;;;;;5056450;28;20182;-72
2021/12/08 07:45:49;;;;;;;7.90;1.90;;;;;;;;;;5058238;28;20216;-72
2021/12/08 07:48:17;;;;;;;8.50;1.87;;;;;;;;;;5057334;28;20198;-72
2021/12/08 07:50:46;;;;;;;7.57;2.50;;;;;;;;;;5056677;28;20623;-72
2021/12/08 07:53:12;;;;;;;7.73;2.00;;;;;;;;;;5051504;28;20573;-72
2021/12/08 07:55:40;;;;;;;8.90;3.13;;;;;;;;;;5060913;28;20627;-72
2021/12/08 07:58:06;;;;;;;8.00;2.50;;;;;;;;;;5054249;28;20200;-72
2021/12/08 08:00:40;;;;;;;6.00;2.20;;;;;;;;;;5045635;28;20177;-72
2021/12/08 08:03:06;;;;;;;9.67;2.73;;;;;;;;;;5048424;28;20182;-72
2021/12/08 08:05:32;;;;;;;6.80;2.50;;;;;;;;;;5051107;28;20196;-72
2021/12/08 08:08:02;;;;;;;8.30;2.60;;;;;;;;;;5060249;28;20734;-72
2021/12/08 08:10:28;;;;;;;9.90;2.60;;;;;;;;;;5053331;28;20694;-72
2021/12/08 08:12:59;;;;;;;8.37;2.97;;;;;;;;;;5054047;28;20181;-72
2021/12/08 08:15:25;;;;;;;3.93;2.07;;;;;;;;;;5049764;28;20212;-71
2021/12/08 08:17:53;;;;;;;6.47;2.23;;;;;;;;;;5052680;28;20229;-72
2021/12/08 08:20:30;;;;;;;5.23;2.10;;;;;;;;;;5061389;28;20181;-72
2021/12/08 08:22:57;;;;;;;6.37;1.90;;;;;;;;;;5056357;28;20253;-72
2021/12/08 08:25:24;;;;;;;6.37;2.00;;;;;;;;;;5060056;28;20193;-72
2021/12/08 08:27:50;;;;;;;4.00;1.90;;;;;;;;;;5058042;28;20611;-71
2021/12/08 08:30:19;;;;;;;10.73;2.03;;;;;;;;;;5061067;28;20199;-73
2021/12/08 08:32:48;;;;;;;5.40;2.00;;;;;;;;;;5046975;28;20281;-72
2021/12/08 08:35:16;;;;;;;7.73;1.73;;;;;;;;;;5048806;28;20182;-72
2021/12/08 08:37:42;;;;;;;6.70;2.43;;;;;;;;;;5064769;28;20267;-72
2021/12/08 08:40:14;;;;;;;7.43;1.93;;;;;;;;;;5055066;28;20173;-73
2021/12/08 08:42:40;;;;;;;5.97;1.80;;;;;;;;;;5064482;28;20177;-73
2021/12/08 08:45:21;;;;;;;7.67;1.90;;;;;;;;;;5059562;28;20205;-72
2021/12/08 08:47:50;;;;;;;6.90;1.83;;;;;;;;;;5046961;28;20200;-72
2021/12/08 08:50:21;;;;;;;7.90;1.70;;;;;;;;;;5053193;28;20173;-71
2021/12/08 08:52:48;;;;;;;4.03;1.67;;;;;;;;;;5056658;28;20184;-72
2021/12/08 08:55:16;;;;;;;6.23;1.63;;;;;;;;;;5060144;28;20653;-72
2021/12/08 08:57:43;;;;;;;6.37;1.87;;;;;;;;;;5051745;28;20193;-72
2021/12/08 09:00:14;;;;;;;8.53;2.07;;;;;;;;;;5046595;28;20367;-72
2021/12/08 09:02:39;;;;;;;3.57;1.30;;;;;;;;;;5048332;28;20238;-71
2021/12/08 09:05:07;;;;;;;5.13;1.73;;;;;;;;;;5050668;28;20675;-72
2021/12/08 09:07:36;;;;;;;5.97;1.80;;;;;;;;;;5052140;28;20169;-73
2021/12/08 09:10:06;;;;;;;7.67;1.40;;;;;;;;;;5058225;28;20173;-72
2021/12/08 09:12:34;;;;;;;8.13;1.17;;;;;;;;;;5055311;28;20204;-72
2021/12/08 09:15:12;;;;;;;11.80;2.07;;;;;;;;;;5072251;28;20566;-72
2021/12/08 09:17:43;;;;;;;4.33;1.37;;;;;;;;;;5057649;28;20176;-72
2021/12/08 09:20:08;;;;;;;4.03;1.40;;;;;;;;;;5061088;28;20181;-72
2021/12/08 09:22:33;;;;;;;5.37;1.67;;;;;;;;;;5046131;28;20188;-72
2021/12/08 09:25:09;;;;;;;5.70;1.20;;;;;;;;;;5055517;28;20193;-72
2021/12/08 09:27:36;;;;;;;4.10;1.03;;;;;;;;;;5053756;28;20164;-74
2021/12/08 09:30:13;;;;;;;7.80;2.67;;;;;;;;;;5047410;28;20237;-72
2021/12/08 09:32:50;;;;;;;7.57;1.07;;;;;;;;;;5056427;28;20192;-73
2021/12/08 09:35:19;;;;;;;7.13;1.60;;;;;;;;;;5055408;28;20185;-72
2021/12/08 09:37:46;;;;;;;9.73;1.63;;;;;;;;;;5052475;28;20219;-71
2021/12/08 09:40:12;;;;;;;4.70;1.57;;;;;;;;;;5054711;28;20205;-71
2021/12/08 09:42:42;;;;;;;4.67;1.47;;;;;;;;;;5053792;28;20178;-71
2021/12/08 09:45:14;;;;;;;6.30;1.60;;;;;;;;;;5049259;28;20233;-73
2021/12/08 09:47:39;;;;;;;3.33;1.23;;;;;;;;;;5060299;28;20186;-73
2021/12/08 09:50:06;;;;;;;8.63;1.40;;;;;;;;;;5062830;28;20274;-73
2021/12/08 09:52:33;;;;;;;4.17;1.47;;;;;;;;;;5053269;28;20571;-72
2021/12/08 09:55:00;;;;;;;7.00;1.80;;;;;;;;;;5053655;28;20192;-73
2021/12/08 09:57:26;;;;;;;3.20;1.47;;;;;;;;;;5052778;28;20173;-72
2021/12/08 09:59:51;;;;;;;3.73;1.53;;;;;;;;;;5052339;28;20181;-72
2021/12/08 10:02:26;;;;;;;3.27;1.23;;;;;;;;;;5045409;28;20232;-72
2021/12/08 10:04:52;;;;;;;5.00;1.33;;;;;;;;;;5044222;28;20180;-72
2021/12/08 10:07:18;;;;;;;5.17;1.90;;;;;;;;;;5058099;28;20707;-73
2021/12/08 10:09:43;;;;;;;4.67;1.50;;;;;;;;;;5056362;28;20201;-73
2021/12/08 10:12:08;;;;;;;5.33;1.47;;;;;;;;;;5059178;28;20569;-72
2021/12/08 10:14:34;;;;;;;5.57;2.40;;;;;;;;;;5062103;28;20635;-72
2021/12/08 10:16:59;;;;;;;4.10;1.43;;;;;;;;;;5055182;28;20170;-73
2021/12/08 10:19:25;;;;;;;3.07;1.80;;;;;;;;;;5061180;28;20221;-72
2021/12/08 10:21:50;;;;;;;5.10;1.70;;;;;;;;;;5053173;28;20177;-73
2021/12/08 10:24:23;;;;;;;3.50;1.60;;;;;;;;;;5059900;28;20658;-72
2021/12/08 10:26:48;;;;;;;5.17;1.70;;;;;;;;;;5065772;28;20209;-72
2021/12/08 10:29:14;;;;;;;3.43;1.73;;;;;;;;;;5057179;28;20694;-72
2021/12/08 10:31:41;;;;;;;8.33;1.87;;;;;;;;;;5065131;28;20189;-71
2021/12/08 10:36:49;;;;;;;4.13;1.57;;;;;;;;;;5059151;28;20329;-72
2021/12/08 10:39:17;;;;;;;3.27;1.90;;;;;;;;;;5056434;28;20198;-72
2021/12/08 10:41:51;;;;;;;7.03;1.83;;;;;;;;;;5061012;28;20211;-72
2021/12/08 10:44:21;;;;;;;3.50;1.87;;;;;;;;;;5066928;28;20267;-72
2021/12/08 10:46:49;;;;;;;4.23;2.13;;;;;;;;;;5062697;28;20205;-72
2021/12/08 10:49:24;;;;;;;3.40;1.80;;;;;;;;;;5051041;28;20658;-72
2021/12/08 10:54:36;;;;;;;3.23;1.67;;;;;;;;;;5057553;28;20246;-72
2021/12/08 10:57:03;;;;;;;3.47;2.13;;;;;;;;;;5063772;28;20196;-72
2021/12/08 10:59:48;;;;;;;6.13;2.23;;;;;;;;;;5053540;28;20211;-72
2021/12/08 11:02:33;;;;;;;3.13;2.00;;;;;;;;;;5047080;28;20181;-73
2021/12/08 11:04:58;;;;;;;5.57;3.13;;;;;;;;;;5052115;28;20598;-71
2021/12/08 11:07:23;;;;;;;5.73;2.33;;;;;;;;;;5050756;28;20177;-72
2021/12/08 11:09:48;;;;;;;4.70;2.60;;;;;;;;;;5057687;28;20183;-72
2021/12/08 11:12:13;;;;;;;4.27;2.60;;;;;;;;;;5062938;28;20564;-72
2021/12/08 11:14:46;;;;;;;6.30;2.90;;;;;;;;;;5048964;28;20470;-72
2021/12/08 11:17:25;;;;;;;5.87;2.70;;;;;;;;;;5055660;28;20192;-72
2021/12/08 11:20:10;;;;;;;7.17;2.87;;;;;;;;;;5051316;28;20693;-72
2021/12/08 11:22:35;;;;;;;6.17;3.30;;;;;;;;;;5058700;28;20219;-72
2021/12/08 11:25:00;;;;;;;8.27;3.00;;;;;;;;;;5057351;28;20209;-73
2021/12/08 11:27:30;;;;;;;2.50;2.30;;;;;;;;;;5049788;28;20181;-72
2021/12/08 11:29:55;;;;;;;6.10;3.17;;;;;;;;;;5059617;28;20335;-71
2021/12/08 11:32:23;;;;;;;3.93;2.97;;;;;;;;;;5051731;28;20699;-71
2021/12/08 11:34:48;;;;;;;3.10;2.53;;;;;;;;;;5056699;28;20177;-71
2021/12/08 11:37:15;;;;;;;4.50;2.80;;;;;;;;;;5059142;28;20174;-72
2021/12/08 11:39:44;;;;;;;4.50;2.60;;;;;;;;;;5061251;28;20266;-72
2021/12/08 11:42:12;;;;;;;2.80;2.20;;;;;;;;;;5054854;28;20181;-73
2021/12/08 11:44:38;;;;;;;4.00;2.30;;;;;;;;;;5056540;28;20554;-71
2021/12/08 11:47:05;;;;;;;6.60;2.73;;;;;;;;;;5053610;28;20209;-73
2021/12/08 11:49:30;;;;;;;6.70;2.83;;;;;;;;;;5062627;28;20188;-72
2021/12/08 11:51:58;;;;;;;2.93;2.27;;;;;;;;;;5046662;28;20178;-72
2021/12/08 11:54:25;;;;;;;5.70;2.13;;;;;;;;;;5063150;28;20526;-72
2021/12/08 11:56:50;;;;;;;4.73;2.20;;;;;;;;;;5049193;28;20232;-73
2021/12/08 11:59:16;;;;;;;4.53;2.30;;;;;;;;;;5050061;28;20228;-72
2021/12/08 12:01:41;;;;;;;4.10;2.17;;;;;;;;;;5054331;28;20188;-73
2021/12/08 12:04:07;;;;;;;3.93;2.67;;;;;;;;;;5047860;28;20697;-73
2021/12/08 12:06:33;;;;;;;5.33;2.40;;;;;;;;;;5041904;28;20641;-72
2021/12/08 12:08:59;;;;;;;4.93;1.80;;;;;;;;;;5050761;28;20205;-72
2021/12/08 12:11:28;;;;;;;2.90;1.80;;;;;;;;;;5055625;28;20173;-73
2021/12/08 12:13:54;;;;;;;4.90;2.50;;;;;;;;;;5054641;28;20260;-73
2021/12/08 12:16:20;;;;;;;5.67;1.60;;;;;;;;;;5051265;28;20797;-72
2021/12/08 12:18:46;;;;;;;4.77;2.07;;;;;;;;;;5054089;28;20205;-73
2021/12/08 12:21:30;;;;;;;6.50;2.20;;;;;;;;;;5057816;28;20188;-73
2021/12/08 12:23:58;;;;;;;2.37;1.83;;;;;;;;;;5046755;28;20181;-72
2021/12/08 12:26:34;;;;;;;5.03;2.10;;;;;;;;;;5064912;28;20197;-73
2021/12/08 12:29:02;;;;;;;4.50;1.50;;;;;;;;;;5064795;28;20223;-73
2021/12/08 12:31:27;;;;;;;5.53;1.77;;;;;;;;;;5052386;28;20768;-73
2021/12/08 12:33:53;;;;;;;3.57;1.80;;;;;;;;;;5053730;28;20205;-73
2021/12/08 12:36:32;;;;;;;2.90;1.80;;;;;;;;;;5057449;28;20189;-73
2021/12/08 12:39:20;;;;;;;6.33;2.07;;;;;;;;;;5053023;28;20255;-72
2021/12/08 12:42:13;;;;;;;3.00;1.70;;;;;;;;;;5043149;28;20606;-72
2021/12/08 12:44:45;;;;;;;4.43;2.00;;;;;;;;;;5045846;28;20239;-72
2021/12/08 12:47:14;;;;;;;3.93;1.80;;;;;;;;;;5063258;28;20752;-73
2021/12/08 12:49:42;;;;;;;3.17;2.07;;;;;;;;;;5048930;28;20217;-72
2021/12/08 12:52:09;;;;;;;3.73;2.17;;;;;;;;;;5061684;28;20231;-72
2021/12/08 12:54:34;;;;;;;5.60;1.80;;;;;;;;;;5049211;28;20209;-72
2021/12/08 12:57:00;;;;;;;3.73;2.00;;;;;;;;;;5055985;28;20646;-72
2021/12/08 12:59:37;;;;;;;4.33;2.83;;;;;;;;;;5050658;28;20616;-73
2021/12/08 13:02:11;;;;;;;3.73;1.80;;;;;;;;;;5055664;28;20177;-72
2021/12/08 13:04:56;;;;;;;3.70;2.10;;;;;;;;;;5055489;28;20186;-73
2021/12/08 13:07:22;;;;;;;7.23;2.23;;;;;;;;;;5052245;28;20212;-73
2021/12/08 13:09:53;;;;;;;3.10;2.07;;;;;;;;;;5045303;28;20173;-72
2021/12/08 13:12:21;;;;;;;3.93;1.97;;;;;;;;;;5054674;28;20706;-73
2021/12/08 13:14:48;;;;;;;5.83;2.93;;;;;;;;;;5048463;28;20565;-72
2021/12/08 13:17:24;;;;;;;4.63;2.10;;;;;;;;;;5054762;28;20243;-72
2021/12/08 13:19:55;;;;;;;3.83;1.87;;;;;;;;;;5071862;28;20222;-72
2021/12/08 13:22:39;;;;;;;5.27;2.10;;;;;;;;;;5058995;28;20260;-73
2021/12/08 13:25:21;;;;;;;4.23;2.37;;;;;;;;;;5044242;28;20188;-73
2021/12/08 13:27:53;;;;;;;5.90;2.43;;;;;;;;;;5054225;28;20206;-73
2021/12/08 13:30:19;;;;;;;12.87;2.53;;;;;;;;;;5047995;28;20669;-72
2021/12/08 13:32:46;;;;;;;4.53;2.57;;;;;;;;;;5049368;28;20181;-73
2021/12/08 13:35:12;;;;;;;6.30;2.77;;;;;;;;;;5045916;28;20659;-73
2021/12/08 13:37:54;;;;;;;3.03;2.73;;;;;;;;;;5047050;28;20186;-73
2021/12/08 13:40:20;;;;;;;5.87;3.43;;;;;;;;;;5048073;28;20255;-73
2021/12/08 13:42:49;;;;;;;4.73;3.50;;;;;;;;;;5048095;28;20185;-73
2021/12/08 13:45:16;;;;;;;6.80;2.77;;;;;;;;;;5051020;28;20204;-72
2021/12/08 13:47:43;;;;;;;4.57;3.00;;;;;;;;;;5051810;28;20205;-72
2021/12/08 13:50:16;;;;;;;6.27;2.27;;;;;;;;;;5050105;28;20189;-73
2021/12/08 13:52:43;;;;;;;7.00;2.53;;;;;;;;;;5052383;28;20180;-73
2021/12/08 13:55:08;;;;;;;6.80;3.13;;;;;;;;;;5046193;28;20185;-72
2021/12/08 13:57:38;;;;;;;4.75;2.70;;;;;;;;;;5048399;28;20185;-73
2021/12/08 14:00:22;;;;;;;2.80;2.40;;;;;;;;;;5047267;28;20296;-73
2021/12/08 14:02:50;;;;;;;3.77;2.67;;;;;;;;;;5046979;28;20173;-73
2021/12/08 14:05:24;;;;;;;5.00;2.87;;;;;;;;;;5052810;28;20659;-72
2021/12/08 14:07:55;;;;;;;3.30;2.60;;;;;;;;;;5055608;28;20197;-73
2021/12/08 14:10:25;;;;;;;3.43;2.30;;;;;;;;;;5075508;28;20221;-73
2021/12/08 14:12:58;;;;;;;5.60;2.40;;;;;;;;;;5064865;28;20169;-73
2021/12/08 14:15:33;;;;;;;3.93;2.70;;;;;;;;;;5059140;28;20220;-73
2021/12/08 14:18:16;;;;;;;6.20;2.30;;;;;;;;;;5054941;28;20287;-73
2021/12/08 14:20:43;;;;;;;4.37;2.63;;;;;;;;;;5050802;28;20184;-73
2021/12/08 14:23:09;;;;;;;4.43;2.33;;;;;;;;;;5056845;28;20178;-74
2021/12/08 14:25:38;;;;;;;4.33;2.27;;;;;;;;;;5066577;28;20189;-72
2021/12/08 14:28:25;;;;;;;6.70;1.83;;;;;;;;;;5067454;22;20852;-75
2021/12/08 14:30:51;;;;;;;5.10;2.30;;;;;;;;;;5054407;28;20194;-75
2021/12/08 14:33:21;;;;;;;4.60;2.10;;;;;;;;;;5051452;28;20204;-77
2021/12/08 14:35:53;;;;;;;4.50;2.10;;;;;;;;;;5041072;28;20190;-76
2021/12/08 14:38:18;;;;;;;4.10;1.67;;;;;;;;;;5042783;28;20209;-76
2021/12/08 14:40:43;;;;;;;3.43;2.30;;;;;;;;;;5053873;28;20195;-77
2021/12/08 14:43:08;;;;;;;12.90;2.60;;;;;;;;;;5049172;28;20597;-75
2021/12/08 14:45:34;;;;;;;7.90;2.07;;;;;;;;;;5056136;28;20291;-77
2021/12/08 14:47:59;;;;;;;2.40;1.80;;;;;;;;;;5063197;28;20204;-78
2021/12/08 14:50:25;;;;;;;2.90;1.80;;;;;;;;;;5047816;28;20200;-74
2021/12/08 14:52:51;;;;;;;6.77;1.87;;;;;;;;;;5060182;28;20177;-75
2021/12/08 14:55:21;;;;;;;4.93;2.03;;;;;;;;;;5050141;28;20181;-76
2021/12/08 14:57:49;;;;;;;2.87;2.00;;;;;;;;;;5046108;28;20239;-76
2021/12/08 15:00:15;;;;;;;4.20;1.90;;;;;;;;;;5053023;28;20181;-74
2021/12/08 15:02:45;;;;;;;2.97;1.77;;;;;;;;;;5049222;28;20189;-75
2021/12/08 15:05:12;;;;;;;3.90;1.70;;;;;;;;;;5050543;28;20185;-74
2021/12/08 15:07:38;;;;;;;6.13;2.00;;;;;;;;;;5051714;28;20185;-77
2021/12/08 15:10:06;;;;;;;3.77;2.10;;;;;;;;;;5054261;28;20667;-75
2021/12/08 15:12:32;;;;;;;3.60;2.23;;;;;;;;;;5044826;28;20185;-75
2021/12/08 15:14:57;;;;;;;5.00;1.90;;;;;;;;;;5059478;28;20192;-75
2021/12/08 15:17:29;;;;;;;7.20;1.93;;;;;;;;;;5051272;28;20177;-75
2021/12/08 15:19:55;;;;;;;3.03;1.50;;;;;;;;;;5050726;28;20202;-75
2021/12/08 15:22:37;;;;;;;3.07;1.57;;;;;;;;;;5051814;28;20186;-76
2021/12/08 15:25:07;;;;;;;3.23;1.93;;;;;;;;;;5044587;28;20261;-75
2021/12/08 15:27:35;;;;;;;7.73;1.67;;;;;;;;;;5046204;28;20193;-76
2021/12/08 15:30:00;;;;;;;7.27;3.93;;;;;;;;;;5047573;28;20213;-75
2021/12/08 15:32:27;;;;;;;2.57;1.87;;;;;;;;;;5057902;28;20215;-75
2021/12/08 15:35:01;;;;;;;6.70;2.27;;;;;;;;;;5054535;28;20629;-75
2021/12/08 15:37:31;;;;;;;3.03;2.00;;;;;;;;;;5048834;28;20188;-74
2021/12/08 15:39:57;;;;;;;5.57;2.23;;;;;;;;;;5059053;28;20738;-76
2021/12/08 15:42:23;;;;;;;5.97;2.17;;;;;;;;;;5054836;28;20268;-76
2021/12/08 15:44:53;;;;;;;4.87;1.90;;;;;;;;;;5048821;28;20189;-75
2021/12/08 15:47:19;;;;;;;5.33;2.03;;;;;;;;;;5051933;28;20283;-75